| time (UTC) | temp C | wind direction | speed KPH | gust KPH | rain 1hr cm | rain 24hr cm | rain mn cm | humidity % | barometer mb |
| 20260506231831 | 18 | 200 | 0.0 | 6.4 | 0.00 | 0.20 | 0.20 | 78 | 1007.1 |
| 20260506231325 | 18 | 142 | 0.0 | 6.4 | 0.00 | 0.20 | 0.20 | 78 | 1007.1 |
| 20260506231050 | 19 | 148 | 0.0 | 3.2 | 0.00 | 0.20 | 0.20 | 79 | 1007.1 |
| 20260506230320 | 18 | 209 | 1.6 | 6.4 | 0.00 | 0.20 | 0.20 | 78 | 1007.0 |
| 20260506225805 | 18 | 214 | 3.2 | 14.5 | 0.00 | 0.20 | 0.20 | 78 | 1007.0 |
| 20260506225259 | 18 | 195 | 3.2 | 14.5 | 0.00 | 0.20 | 0.20 | 78 | 1007.0 |
| 20260506224752 | 18 | 159 | 1.6 | 8.0 | 0.00 | 0.20 | 0.20 | 79 | 1007.0 |
| 20260506224246 | 18 | 157 | 3.2 | 16.1 | 0.00 | 0.20 | 0.20 | 79 | 1006.7 |
| 20260506223740 | 18 | 185 | 4.8 | 17.7 | 0.00 | 0.20 | 0.20 | 78 | 1006.9 |
| 20260506223233 | 18 | 224 | 4.8 | 17.7 | 0.00 | 0.20 | 0.20 | 78 | 1007.0 |
| 20260506222727 | 18 | 227 | 3.2 | 12.9 | 0.00 | 0.20 | 0.20 | 79 | 1007.0 |
| 20260506222223 | 18 | 221 | 1.6 | 9.7 | 0.00 | 0.20 | 0.20 | 80 | 1007.0 |
| 20260506221716 | 18 | 226 | 1.6 | 11.3 | 0.00 | 0.20 | 0.20 | 79 | 1007.1 |
| 20260506221211 | 18 | 163 | 1.6 | 11.3 | 0.00 | 0.20 | 0.20 | 79 | 1007.0 |
| 20260506220704 | 18 | 187 | 3.2 | 11.3 | 0.00 | 0.20 | 0.20 | 79 | 1006.9 |
| 20260506220158 | 18 | 184 | 1.6 | 11.3 | 0.00 | 0.20 | 0.20 | 80 | 1007.0 |
| 20260506215651 | 18 | 188 | 1.6 | 11.3 | 0.00 | 0.20 | 0.20 | 80 | 1006.8 |
| 20260506215145 | 18 | 179 | 1.6 | 8.0 | 0.00 | 0.20 | 0.20 | 80 | 1006.7 |
| 20260506214641 | 18 | 152 | 1.6 | 12.9 | 0.00 | 0.20 | 0.20 | 80 | 1006.7 |
| 20260506214134 | 18 | 209 | 0.0 | 12.9 | 0.00 | 0.20 | 0.20 | 80 | 1006.8 |
| 20260506213629 | 18 | 159 | 1.6 | 9.7 | 0.00 | 0.20 | 0.20 | 81 | 1006.7 |
| 20260506213121 | 18 | 187 | 1.6 | 19.3 | 0.00 | 0.20 | 0.20 | 80 | 1006.6 |
| 20260506212848 | 18 | 178 | 1.6 | 19.3 | 0.00 | 0.20 | 0.20 | 80 | 1006.6 |
| 20260506212109 | 18 | 196 | 3.2 | 24.1 | 0.00 | 0.20 | 0.20 | 81 | 1006.6 |
| 20260506211604 | 18 | 140 | 3.2 | 24.1 | 0.00 | 0.20 | 0.20 | 81 | 1006.6 |
| 20260506211329 | 18 | 154 | 6.4 | 27.4 | 0.00 | 0.20 | 0.20 | 81 | 1006.6 |
| 20260506210552 | 17 | 142 | 6.4 | 27.4 | 0.00 | 0.20 | 0.20 | 81 | 1006.7 |
| 20260506210046 | 17 | 229 | 4.8 | 20.9 | 0.00 | 0.20 | 0.20 | 82 | 1006.5 |
| 20260506205540 | 17 | 148 | 4.8 | 20.9 | 0.00 | 0.20 | 0.20 | 82 | 1006.6 |
| 20260506205034 | 17 | 161 | 4.8 | 19.3 | 0.00 | 0.20 | 0.20 | 82 | 1006.5 |
| 20260506204529 | 17 | 178 | 3.2 | 19.3 | 0.00 | 0.20 | 0.20 | 83 | 1006.3 |
| 20260506204252 | 17 | 177 | 4.8 | 20.9 | 0.00 | 0.20 | 0.20 | 83 | 1006.4 |
| 20260506203516 | 17 | 159 | 4.8 | 20.9 | 0.00 | 0.20 | 0.20 | 82 | 1006.3 |
| 20260506203011 | 17 | 161 | 4.8 | 16.1 | 0.00 | 0.20 | 0.20 | 84 | 1006.4 |
| 20260506202504 | 17 | 196 | 4.8 | 19.3 | 0.00 | 0.20 | 0.20 | 84 | 1006.4 |
| 20260506201958 | 17 | 182 | 3.2 | 19.3 | 0.00 | 0.20 | 0.20 | 85 | 1006.2 |
| 20260506201453 | 17 | 187 | 1.6 | 9.7 | 0.00 | 0.20 | 0.20 | 86 | 1006.3 |
| 20260506200946 | 16 | 189 | 3.2 | 11.3 | 0.00 | 0.20 | 0.20 | 87 | 1006.4 |
| 20260506200441 | 16 | 198 | 4.8 | 14.5 | 0.00 | 0.20 | 0.20 | 86 | 1006.5 |
| 20260506195934 | 16 | 184 | 3.2 | 14.5 | 0.00 | 0.20 | 0.20 | 87 | 1006.6 |
| 20260506195428 | 16 | 157 | 4.8 | 16.1 | 0.00 | 0.20 | 0.20 | 87 | 1006.6 |
| 20260506194922 | 16 | 187 | 3.2 | 16.1 | 0.00 | 0.20 | 0.20 | 87 | 1006.8 |
| 20260506194415 | 16 | 204 | 1.6 | 12.9 | 0.00 | 0.20 | 0.20 | 87 | 1007.0 |
| 20260506193910 | 16 | 202 | 3.2 | 12.9 | 0.00 | 0.20 | 0.20 | 86 | 1007.0 |
| 20260506193411 | 16 | 177 | 4.8 | 12.9 | 0.00 | 0.20 | 0.20 | 86 | 1007.0 |
| 20260506192913 | 16 | 154 | 4.8 | 14.5 | 0.00 | 0.20 | 0.20 | 87 | 1007.2 |
| 20260506192642 | 16 | 149 | 4.8 | 20.9 | 0.00 | 0.20 | 0.20 | 86 | 1007.3 |
| 20260506191909 | 16 | 155 | 4.8 | 20.9 | 0.00 | 0.20 | 0.20 | 86 | 1007.2 |
| 20260506191409 | 16 | 189 | 6.4 | 20.9 | 0.00 | 0.20 | 0.20 | 87 | 1007.2 |
| 20260506190906 | 16 | 152 | 6.4 | 20.9 | 0.00 | 0.20 | 0.20 | 87 | 1007.3 |
| 20260506190408 | 16 | 206 | 4.8 | 17.7 | 0.00 | 0.20 | 0.20 | 87 | 1007.3 |
| 20260506185908 | 16 | 177 | 4.8 | 17.7 | 0.00 | 0.20 | 0.20 | 87 | 1007.3 |
| 20260506185637 | 16 | 150 | 4.8 | 17.7 | 0.00 | 0.20 | 0.20 | 87 | 1007.4 |
| 20260506184908 | 16 | 209 | 4.8 | 24.1 | 0.00 | 0.20 | 0.20 | 87 | 1007.3 |
| 20260506184411 | 16 | 183 | 4.8 | 9.7 | 0.00 | 0.20 | 0.20 | 88 | 1007.4 |
| 20260506184406 | 16 | 165 | 6.4 | 24.1 | 0.00 | 0.20 | 0.20 | 87 | 1007.5 |
| 20260506183408 | 16 | 155 | 4.8 | 24.1 | 0.00 | 0.20 | 0.20 | 87 | 1007.3 |
| 20260506182902 | 16 | 169 | 4.8 | 24.1 | 0.00 | 0.20 | 0.20 | 88 | 1007.3 |
| 20260506182402 | 16 | 136 | 1.6 | 14.5 | 0.00 | 0.20 | 0.20 | 88 | 1007.3 |
| 20260506181903 | 16 | 124 | 1.6 | 12.9 | 0.00 | 0.20 | 0.20 | 88 | 1007.3 |
| 20260506181402 | 16 | 153 | 3.2 | 14.5 | 0.00 | 0.20 | 0.20 | 87 | 1007.5 |
| 20260506180902 | 16 | 189 | 3.2 | 14.5 | 0.00 | 0.20 | 0.20 | 87 | 1007.6 |
| 20260506180403 | 16 | 195 | 3.2 | 9.7 | 0.00 | 0.20 | 0.20 | 87 | 1007.7 |
| 20260506180136 | 16 | 219 | 3.2 | 9.7 | 0.03 | 0.20 | 0.20 | 87 | 1007.6 |
| 20260506175402 | 16 | 117 | 4.8 | 17.7 | 0.03 | 0.20 | 0.20 | 87 | 1007.7 |
| 20260506174904 | 16 | 93 | 4.8 | 17.7 | 0.03 | 0.20 | 0.20 | 87 | 1007.7 |
| 20260506174403 | 16 | 242 | 3.2 | 11.3 | 0.03 | 0.20 | 0.20 | 87 | 1007.9 |
| 20260506173904 | 17 | 171 | 3.2 | 11.3 | 0.03 | 0.20 | 0.20 | 87 | 1007.8 |
| 20260506173404 | 17 | 179 | 1.6 | 8.0 | 0.05 | 0.20 | 0.20 | 87 | 1007.8 |
| 20260506172902 | 17 | 169 | 3.2 | 11.3 | 0.05 | 0.20 | 0.20 | 88 | 1007.8 |
| 20260506172401 | 17 | 188 | 3.2 | 11.3 | 0.05 | 0.20 | 0.20 | 88 | 1007.7 |
| 20260506171902 | 17 | 200 | 1.6 | 8.0 | 0.08 | 0.20 | 0.20 | 89 | 1007.8 |
| 20260506171401 | 17 | 154 | 1.6 | 4.8 | 0.08 | 0.20 | 0.20 | 89 | 1007.6 |
| 20260506170900 | 17 | 154 | 0.0 | 4.8 | 0.10 | 0.20 | 0.20 | 90 | 1007.6 |
| 20260506170401 | 17 | 125 | 0.0 | 1.6 | 0.10 | 0.20 | 0.20 | 90 | 1007.7 |
| 20260506165854 | 16 | 167 | 0.0 | 1.6 | 0.10 | 0.18 | 0.18 | 90 | 1007.8 |
| 20260506165627 | 16 | 152 | 0.0 | 1.6 | 0.10 | 0.18 | 0.18 | 89 | 1007.9 |
| 20260506164854 | 16 | 190 | 0.0 | 3.2 | 0.13 | 0.18 | 0.18 | 89 | 1007.9 |
| 20260506164354 | 16 | 235 | 0.0 | 3.2 | 0.13 | 0.18 | 0.18 | 89 | 1008.0 |
| 20260506163852 | 16 | 154 | 0.0 | 4.8 | 0.15 | 0.18 | 0.18 | 88 | 1008.3 |
| 20260506163353 | 16 | 138 | 0.0 | 8.0 | 0.13 | 0.15 | 0.15 | 88 | 1008.4 |
| 20260506162852 | 16 | 116 | 1.6 | 12.9 | 0.15 | 0.15 | 0.15 | 87 | 1008.7 |
| 20260506162353 | 16 | 149 | 3.2 | 16.1 | 0.13 | 0.13 | 0.15 | 87 | 1008.7 |
| 20260506161853 | 16 | 139 | 1.6 | 16.1 | 0.13 | 0.13 | 0.13 | 86 | 1009.0 |
| 20260506161351 | 16 | 170 | 0.0 | 4.8 | 0.13 | 0.13 | 0.13 | 86 | 1009.1 |
| 20260506161124 | 16 | 152 | 0.0 | 4.8 | 0.10 | 0.10 | 0.10 | 85 | 1009.1 |
| 20260506160351 | 16 | 158 | 0.0 | 4.8 | 0.10 | 0.10 | 0.10 | 84 | 1009.1 |
| 20260506155848 | 16 | 148 | 1.6 | 4.8 | 0.08 | 0.08 | 0.08 | 83 | 1009.1 |
| 20260506155349 | 17 | 179 | 1.6 | 9.7 | 0.08 | 0.08 | 0.08 | 82 | 1009.3 |
| 20260506154849 | 17 | 196 | 1.6 | 12.9 | 0.05 | 0.05 | 0.05 | 81 | 1009.3 |
| 20260506154349 | 17 | 237 | 1.6 | 14.5 | 0.05 | 0.05 | 0.05 | 79 | 1009.4 |
| 20260506153849 | 17 | 204 | 3.2 | 14.5 | 0.03 | 0.03 | 0.03 | 78 | 1009.3 |
| 20260506153350 | 17 | 138 | 3.2 | 16.1 | 0.03 | 0.03 | 0.03 | 76 | 1009.1 |
| 20260506152841 | 18 | 134 | 4.8 | 16.1 | 0.00 | 0.00 | 0.00 | 75 | 1009.0 |
| 20260506152334 | 18 | 213 | 3.2 | 14.5 | 0.00 | 0.00 | 0.00 | 72 | 1008.9 |
| 20260506151829 | 18 | 194 | 3.2 | 9.7 | 0.00 | 0.00 | 0.00 | 73 | 1009.0 |
| 20260506151556 | 18 | 140 | 3.2 | 9.7 | 0.00 | 0.00 | 0.00 | 73 | 1008.9 |
| 20260506150816 | 18 | 140 | 3.2 | 14.5 | 0.00 | 0.00 | 0.00 | 74 | 1009.1 |
| 20260506150312 | 18 | 161 | 3.2 | 14.5 | 0.00 | 0.00 | 0.00 | 73 | 1009.1 |
| 20260506150036 | 18 | 180 | 3.2 | 9.7 | 0.00 | 0.00 | 0.00 | 71 | 1009.1 |
| 20260506145258 | 18 | 150 | 3.2 | 14.5 | 0.00 | 0.00 | 0.00 | 69 | 1009.1 |
| 20260506144752 | 18 | 181 | 3.2 | 12.9 | 0.00 | 0.00 | 0.00 | 69 | 1009.2 |
| 20260506144248 | 18 | 152 | 3.2 | 14.5 | 0.00 | 0.00 | 0.00 | 69 | 1009.2 |
| 20260506143741 | 18 | 167 | 4.8 | 14.5 | 0.00 | 0.00 | 0.00 | 69 | 1009.2 |
| 20260506143236 | 18 | 189 | 6.4 | 30.6 | 0.00 | 0.00 | 0.00 | 68 | 1009.1 |
| 20260506142729 | 18 | 173 | 4.8 | 30.6 | 0.00 | 0.00 | 0.00 | 68 | 1009.1 |
| 20260506142224 | 19 | 185 | 4.8 | 22.5 | 0.00 | 0.00 | 0.00 | 68 | 1009.0 |
| 20260506141717 | 19 | 154 | 3.2 | 11.3 | 0.00 | 0.00 | 0.00 | 69 | 1009.1 |
| 20260506141211 | 18 | 198 | 3.2 | 11.3 | 0.00 | 0.00 | 0.00 | 70 | 1009.1 |
| 20260506140705 | 18 | 170 | 4.8 | 17.7 | 0.00 | 0.00 | 0.00 | 70 | 1009.0 |
| 20260506140158 | 18 | 142 | 4.8 | 17.7 | 0.00 | 0.00 | 0.00 | 71 | 1009.0 |
| 20260506135923 | 18 | 164 | 4.8 | 14.5 | 0.00 | 0.00 | 0.00 | 71 | 1009.0 |
| 20260506135147 | 18 | 194 | 4.8 | 14.5 | 0.00 | 0.00 | 0.00 | 71 | 1009.0 |
| 20260506134912 | 18 | 171 | 4.8 | 16.1 | 0.00 | 0.00 | 0.00 | 72 | 1009.1 |
| 20260506134405 | 18 | 154 | 4.8 | 16.1 | 0.00 | 0.00 | 0.00 | 71 | 1009.1 |
| 20260506133629 | 18 | 186 | 4.8 | 14.5 | 0.00 | 0.00 | 0.00 | 71 | 1009.1 |
| 20260506133122 | 18 | 175 | 4.8 | 14.5 | 0.00 | 0.00 | 0.00 | 71 | 1009.0 |
| 20260506132616 | 18 | 236 | 4.8 | 19.3 | 0.00 | 0.00 | 0.00 | 71 | 1009.1 |
| 20260506132110 | 18 | 235 | 4.8 | 19.3 | 0.00 | 0.00 | 0.00 | 71 | 1009.2 |
| 20260506131605 | 18 | 146 | 4.8 | 19.3 | 0.00 | 0.00 | 0.00 | 72 | 1009.3 |
| 20260506131058 | 18 | 130 | 4.8 | 19.3 | 0.00 | 0.00 | 0.00 | 72 | 1009.3 |
| 20260506130552 | 18 | 170 | 6.4 | 17.7 | 0.00 | 0.00 | 0.00 | 72 | 1009.2 |
| 20260506130046 | 18 | 160 | 6.4 | 19.3 | 0.00 | 0.00 | 0.00 | 73 | 1009.2 |
| 20260506125541 | 17 | 154 | 4.8 | 19.3 | 0.00 | 0.00 | 0.00 | 73 | 1009.1 |
| 20260506125035 | 17 | 207 | 3.2 | 11.3 | 0.00 | 0.00 | 0.00 | 73 | 1009.1 |
| 20260506124529 | 17 | 200 | 4.8 | 12.9 | 0.00 | 0.00 | 0.00 | 74 | 1009.1 |
| 20260506124023 | 17 | 112 | 4.8 | 12.9 | 0.00 | 0.00 | 0.00 | 74 | 1009.1 |
| 20260506123518 | 17 | 132 | 3.2 | 11.3 | 0.00 | 0.00 | 0.00 | 74 | 1009.0 |
| 20260506123513 | 17 | 200 | 3.2 | 14.5 | 0.00 | 0.00 | 0.00 | 75 | 1009.0 |
| 20260506122504 | 17 | 168 | 4.8 | 14.5 | 0.00 | 0.00 | 0.00 | 75 | 1009.0 |
| 20260506122000 | 17 | 149 | 3.2 | 9.7 | 0.00 | 0.00 | 0.00 | 75 | 1009.1 |
| 20260506121453 | 17 | 144 | 3.2 | 9.7 | 0.00 | 0.00 | 0.00 | 76 | 1009.1 |
| 20260506120947 | 17 | 160 | 3.2 | 11.3 | 0.00 | 0.00 | 0.00 | 76 | 1009.1 |
| 20260506120711 | 16 | 181 | 3.2 | 11.3 | 0.00 | 0.00 | 0.00 | 75 | 1009.1 |
| 20260506120205 | 17 | 128 | 3.2 | 9.7 | 0.00 | 0.00 | 0.00 | 75 | 1009.1 |
| 20260506115429 | 16 | 142 | 3.2 | 11.3 | 0.00 | 0.00 | 0.00 | 76 | 1009.1 |
| 20260506114922 | 16 | 139 | 4.8 | 11.3 | 0.00 | 0.00 | 0.00 | 76 | 1009.2 |
| 20260506114416 | 16 | 117 | 4.8 | 9.7 | 0.00 | 0.00 | 0.00 | 76 | 1009.0 |
| 20260506113917 | 16 | 131 | 4.8 | 9.7 | 0.00 | 0.00 | 0.00 | 76 | 1009.3 |
| 20260506113416 | 16 | 134 | 4.8 | 12.9 | 0.00 | 0.00 | 0.00 | 76 | 1009.2 |
| 20260506112915 | 16 | 195 | 4.8 | 12.9 | 0.00 | 0.00 | 0.00 | 76 | 1009.3 |
| 20260506112415 | 16 | 173 | 4.8 | 11.3 | 0.00 | 0.00 | 0.00 | 77 | 1009.2 |
| 20260506111915 | 16 | 172 | 3.2 | 11.3 | 0.00 | 0.00 | 0.00 | 77 | 1009.1 |
| 20260506111416 | 16 | 155 | 4.8 | 12.9 | 0.00 | 0.00 | 0.00 | 78 | 1009.1 |
| 20260506110918 | 16 | 221 | 4.8 | 12.9 | 0.00 | 0.00 | 0.00 | 78 | 1009.1 |
| 20260506110416 | 16 | 146 | 4.8 | 12.9 | 0.00 | 0.00 | 0.00 | 78 | 1009.1 |
| 20260506105915 | 16 | 181 | 4.8 | 12.9 | 0.00 | 0.00 | 0.00 | 79 | 1009.1 |
| 20260506105417 | 16 | 143 | 4.8 | 12.9 | 0.00 | 0.00 | 0.00 | 78 | 1009.0 |
| 20260506104918 | 16 | 171 | 3.2 | 12.9 | 0.00 | 0.00 | 0.00 | 79 | 1009.0 |
| 20260506104417 | 16 | 122 | 3.2 | 9.7 | 0.00 | 0.00 | 0.00 | 79 | 1009.0 |
| 20260506104146 | 16 | 203 | 3.2 | 9.7 | 0.00 | 0.00 | 0.00 | 79 | 1008.9 |
| 20260506103416 | 16 | 158 | 4.8 | 12.9 | 0.00 | 0.00 | 0.00 | 79 | 1008.9 |
| 20260506102916 | 16 | 180 | 4.8 | 12.9 | 0.00 | 0.00 | 0.00 | 79 | 1008.9 |
| 20260506102418 | 16 | 174 | 3.2 | 11.3 | 0.00 | 0.00 | 0.00 | 79 | 1008.9 |
| 20260506101917 | 16 | 189 | 4.8 | 11.3 | 0.00 | 0.00 | 0.00 | 79 | 1009.0 |
| 20260506101416 | 16 | 170 | 4.8 | 16.1 | 0.00 | 0.00 | 0.00 | 79 | 1009.0 |
| 20260506100915 | 16 | 159 | 4.8 | 16.1 | 0.00 | 0.00 | 0.00 | 79 | 1009.1 |
| 20260506100417 | 16 | 157 | 3.2 | 11.3 | 0.00 | 0.00 | 0.00 | 79 | 1009.0 |
| 20260506095915 | 16 | 126 | 3.2 | 12.9 | 0.00 | 0.00 | 0.00 | 78 | 1009.0 |
| 20260506095415 | 16 | 147 | 3.2 | 12.9 | 0.00 | 0.00 | 0.00 | 78 | 1008.8 |
| 20260506094917 | 16 | 129 | 3.2 | 9.7 | 0.00 | 0.00 | 0.00 | 78 | 1008.8 |
| 20260506094415 | 16 | 136 | 3.2 | 9.7 | 0.00 | 0.00 | 0.00 | 78 | 1008.8 |
| 20260506093915 | 16 | 167 | 3.2 | 9.7 | 0.00 | 0.00 | 0.00 | 78 | 1008.8 |
| 20260506093648 | 16 | 159 | 3.2 | 12.9 | 0.00 | 0.00 | 0.00 | 78 | 1008.8 |
| 20260506092916 | 16 | 157 | 4.8 | 12.9 | 0.00 | 0.00 | 0.00 | 78 | 1008.8 |
| 20260506092416 | 16 | 190 | 4.8 | 11.3 | 0.00 | 0.00 | 0.00 | 78 | 1008.9 |
| 20260506091916 | 16 | 142 | 4.8 | 11.3 | 0.00 | 0.00 | 0.00 | 78 | 1008.9 |
| 20260506091415 | 16 | 225 | 4.8 | 9.7 | 0.00 | 0.00 | 0.00 | 78 | 1008.9 |
| 20260506090909 | 16 | 188 | 3.2 | 9.7 | 0.00 | 0.00 | 0.00 | 78 | 1008.9 |
| 20260506090405 | 16 | 165 | 1.6 | 9.7 | 0.00 | 0.00 | 0.00 | 78 | 1009.0 |
| 20260506085905 | 16 | 176 | 3.2 | 9.7 | 0.00 | 0.00 | 0.00 | 78 | 1009.1 |
| 20260506085401 | 16 | 144 | 3.2 | 9.7 | 0.00 | 0.00 | 0.00 | 78 | 1009.0 |
| 20260506084901 | 16 | 145 | 3.2 | 11.3 | 0.00 | 0.00 | 0.00 | 78 | 1009.0 |
| 20260506084357 | 16 | 161 | 3.2 | 11.3 | 0.00 | 0.00 | 0.00 | 78 | 1009.0 |
| 20260506083855 | 16 | 131 | 1.6 | 11.3 | 0.00 | 0.00 | 0.00 | 78 | 1009.1 |
| 20260506083356 | 16 | 130 | 1.6 | 9.7 | 0.00 | 0.00 | 0.00 | 78 | 1009.1 |
| 20260506083128 | 16 | 152 | 1.6 | 9.7 | 0.00 | 0.00 | 0.00 | 78 | 1009.0 |
| 20260506082356 | 16 | 148 | 1.6 | 14.5 | 0.00 | 0.00 | 0.00 | 78 | 1009.1 |
| 20260506081857 | 16 | 137 | 1.6 | 14.5 | 0.00 | 0.00 | 0.00 | 78 | 1009.1 |
| 20260506081355 | 16 | 165 | 1.6 | 9.7 | 0.00 | 0.00 | 0.00 | 78 | 1009.2 |
| 20260506080900 | 16 | 142 | 1.6 | 11.3 | 0.00 | 0.00 | 0.00 | 78 | 1009.1 |
| 20260506080855 | 16 | 143 | 3.2 | 11.3 | 0.00 | 0.00 | 0.00 | 78 | 1009.2 |
| 20260506073349 | 17 | 117 | 1.6 | 14.5 | 0.00 | 0.00 | 0.00 | 77 | 1009.2 |
| 20260506072849 | 17 | 171 | 1.6 | 14.5 | 0.00 | 0.00 | 0.00 | 77 | 1009.2 |
| 20260506072344 | 17 | 142 | 1.6 | 12.9 | 0.00 | 0.00 | 0.00 | 76 | 1009.3 |
| 20260506071838 | 17 | 159 | 1.6 | 4.8 | 0.00 | 0.00 | 0.00 | 76 | 1009.4 |
| 20260506071331 | 17 | 156 | 1.6 | 6.4 | 0.00 | 0.00 | 0.00 | 76 | 1009.4 |
| 20260506070826 | 17 | 136 | 1.6 | 12.9 | 0.00 | 0.00 | 0.00 | 76 | 1009.4 |
| 20260506070321 | 17 | 146 | 1.6 | 12.9 | 0.00 | 0.00 | 0.00 | 76 | 1009.5 |
| 20260506062232 | 17 | 144 | 0.0 | 4.8 | 0.00 | 0.00 | 0.00 | 74 | 1009.7 |
| 20260506061726 | 17 | 175 | 0.0 | 4.8 | 0.00 | 0.00 | 0.00 | 73 | 1009.7 |
| 20260506061219 | 17 | 138 | 0.0 | 4.8 | 0.00 | 0.00 | 0.00 | 73 | 1009.7 |
| 20260506060947 | 17 | 124 | 0.0 | 8.0 | 0.00 | 0.00 | 0.00 | 73 | 1009.8 |
| 20260506060208 | 17 | 174 | 0.0 | 8.0 | 0.00 | 0.00 | 0.00 | 72 | 1009.8 |
| 20260506060203 | 17 | 152 | 0.0 | 6.4 | 0.00 | 0.00 | 0.00 | 72 | 1009.7 |
| 20260506051109 | 18 | 206 | 3.2 | 12.9 | 0.00 | 0.00 | 0.00 | 70 | 1010.1 |
| 20260506050602 | 18 | 167 | 3.2 | 9.7 | 0.00 | 0.00 | 0.00 | 69 | 1010.0 |
| 20260506045044 | 18 | 199 | 3.2 | 9.7 | 0.00 | 0.00 | 0.00 | 68 | 1010.3 |
| 20260506044537 | 18 | 203 | 1.6 | 9.7 | 0.00 | 0.00 | 0.00 | 68 | 1010.4 |
| 20260506044031 | 18 | 186 | 1.6 | 9.7 | 0.00 | 0.00 | 0.00 | 68 | 1010.3 |
| 20260506043526 | 18 | 144 | 3.2 | 9.7 | 0.00 | 0.00 | 0.00 | 68 | 1010.1 |
| 20260506043250 | 18 | 258 | 3.2 | 11.3 | 0.00 | 0.00 | 0.00 | 67 | 1010.3 |
| 20260506042513 | 18 | 188 | 3.2 | 11.3 | 0.00 | 0.00 | 0.00 | 67 | 1010.4 |
| 20260506042009 | 18 | 142 | 3.2 | 11.3 | 0.00 | 0.00 | 0.00 | 66 | 1010.3 |
| 20260506041503 | 18 | 141 | 1.6 | 6.4 | 0.00 | 0.00 | 0.00 | 66 | 1010.3 |
| 20260506040956 | 18 | 148 | 3.2 | 9.7 | 0.00 | 0.00 | 0.00 | 66 | 1010.0 |
| 20260506040450 | 18 | 194 | 3.2 | 11.3 | 0.00 | 0.00 | 0.00 | 66 | 1010.0 |
| 20260506035944 | 18 | 197 | 3.2 | 11.3 | 0.00 | 0.00 | 0.00 | 66 | 1010.0 |
| 20260506035445 | 18 | 139 | 3.2 | 9.7 | 0.00 | 0.00 | 0.00 | 65 | 1010.0 |
| 20260506035214 | 18 | 171 | 3.2 | 8.0 | 0.00 | 0.00 | 0.00 | 65 | 1010.0 |
| 20260506034442 | 18 | 173 | 3.2 | 8.0 | 0.00 | 0.00 | 0.00 | 64 | 1010.0 |
| 20260506033941 | 18 | 215 | 3.2 | 12.9 | 0.00 | 0.00 | 0.00 | 64 | 1009.9 |
| 20260506033442 | 18 | 169 | 3.2 | 12.9 | 0.00 | 0.00 | 0.00 | 64 | 1009.9 |
| 20260506033212 | 18 | 147 | 3.2 | 9.7 | 0.00 | 0.00 | 0.00 | 64 | 1010.0 |
| 20260506032443 | 18 | 127 | 3.2 | 9.7 | 0.00 | 0.00 | 0.00 | 63 | 1010.0 |
| 20260506031944 | 18 | 149 | 3.2 | 12.9 | 0.00 | 0.00 | 0.00 | 63 | 1010.0 |
| 20260506031443 | 18 | 155 | 3.2 | 12.9 | 0.00 | 0.00 | 0.00 | 63 | 1010.1 |
| 20260506030941 | 18 | 200 | 3.2 | 6.4 | 0.00 | 0.00 | 0.00 | 63 | 1010.0 |
| 20260506030442 | 19 | 128 | 3.2 | 9.7 | 0.00 | 0.00 | 0.00 | 63 | 1010.0 |
| 20260506025941 | 19 | 152 | 3.2 | 11.3 | 0.00 | 0.00 | 0.00 | 62 | 1010.1 |
| 20260506025443 | 19 | 132 | 3.2 | 12.9 | 0.00 | 0.00 | 0.00 | 62 | 1010.1 |
| 20260506024937 | 19 | 98 | 3.2 | 12.9 | 0.00 | 0.00 | 0.00 | 62 | 1010.1 |
| 20260506024438 | 19 | 146 | 3.2 | 11.3 | 0.00 | 0.00 | 0.00 | 62 | 1010.1 |
| 20260506023940 | 19 | 148 | 3.2 | 12.9 | 0.00 | 0.00 | 0.00 | 61 | 1010.0 |
| 20260506023439 | 19 | 162 | 3.2 | 12.9 | 0.00 | 0.00 | 0.00 | 60 | 1010.1 |
| 20260506022938 | 19 | 143 | 3.2 | 11.3 | 0.00 | 0.00 | 0.00 | 61 | 1010.3 |
| 20260506022439 | 19 | 115 | 3.2 | 11.3 | 0.00 | 0.00 | 0.00 | 60 | 1010.1 |
| 20260506021938 | 19 | 235 | 3.2 | 6.4 | 0.00 | 0.00 | 0.00 | 60 | 1010.1 |
| 20260506021438 | 19 | 159 | 3.2 | 9.7 | 0.00 | 0.00 | 0.00 | 60 | 1010.1 |
| 20260506020939 | 20 | 171 | 3.2 | 9.7 | 0.00 | 0.00 | 0.00 | 60 | 1010.1 |
| 20260506020438 | 20 | 213 | 1.6 | 6.4 | 0.00 | 0.00 | 0.00 | 59 | 1010.0 |
| 20260506020210 | 20 | 171 | 1.6 | 8.0 | 0.00 | 0.00 | 0.00 | 59 | 1009.9 |
| 20260506015438 | 20 | 179 | 3.2 | 8.0 | 0.00 | 0.00 | 0.00 | 59 | 1009.9 |
| 20260506014939 | 20 | 171 | 3.2 | 6.4 | 0.00 | 0.00 | 0.00 | 59 | 1010.0 |
| 20260506014437 | 20 | 123 | 1.6 | 6.4 | 0.00 | 0.00 | 0.00 | 58 | 1010.0 |
| 20260506013937 | 20 | 140 | 1.6 | 6.4 | 0.00 | 0.00 | 0.00 | 58 | 1010.0 |
| 20260506013439 | 20 | 155 | 3.2 | 6.4 | 0.00 | 0.00 | 0.00 | 57 | 1010.0 |
| 20260506012939 | 20 | 151 | 3.2 | 9.7 | 0.00 | 0.00 | 0.00 | 57 | 1010.0 |
| 20260506012442 | 21 | 148 | 4.8 | 12.9 | 0.00 | 0.00 | 0.00 | 55 | 1009.8 |
| 20260506012437 | 20 | 139 | 3.2 | 9.7 | 0.00 | 0.00 | 0.00 | 56 | 1009.9 |
| 20260506011707 | 21 | 132 | 3.2 | 12.9 | 0.00 | 0.00 | 0.00 | 54 | 1009.8 |
| 20260506011208 | 21 | 128 | 3.2 | 11.3 | 0.00 | 0.00 | 0.00 | 52 | 1009.6 |
| 20260506010706 | 21 | 113 | 3.2 | 11.3 | 0.00 | 0.00 | 0.00 | 52 | 1009.7 |
| 20260506005936 | 21 | 121 | 3.2 | 11.3 | 0.00 | 0.00 | 0.00 | 50 | 1009.7 |
| 20260506005436 | 21 | 117 | 4.8 | 11.3 | 0.00 | 0.00 | 0.00 | 49 | 1009.5 |
| 20260506004933 | 21 | 144 | 4.8 | 11.3 | 0.00 | 0.00 | 0.00 | 49 | 1009.5 |
| 20260506004434 | 22 | 166 | 3.2 | 11.3 | 0.00 | 0.00 | 0.00 | 48 | 1009.4 |
| 20260506003933 | 22 | 168 | 3.2 | 6.4 | 0.00 | 0.00 | 0.00 | 48 | 1009.4 |
| 20260506003439 | 22 | 152 | 3.2 | 11.3 | 0.00 | 0.00 | 0.00 | 45 | 1009.3 |
| 20260506003433 | 22 | 219 | 3.2 | 11.3 | 0.00 | 0.00 | 0.00 | 46 | 1009.3 |
| 20260506002433 | 22 | 151 | 3.2 | 11.3 | 0.00 | 0.00 | 0.00 | 45 | 1009.2 |
| 20260506001931 | 22 | 127 | 3.2 | 11.3 | 0.00 | 0.00 | 0.00 | 45 | 1009.2 |
| 20260506001431 | 22 | 191 | 3.2 | 11.3 | 0.00 | 0.00 | 0.00 | 44 | 1009.1 |
| 20260506000931 | 22 | 111 | 4.8 | 17.7 | 0.00 | 0.00 | 0.00 | 44 | 1009.0 |
| 20260506000431 | 22 | 161 | 4.8 | 17.7 | 0.00 | 0.00 | 0.00 | 43 | 1008.9 |
| 20260505235925 | 22 | 138 | 3.2 | 9.7 | 0.00 | 0.00 | 0.00 | 44 | 1008.9 |
| 20260505235650 | 23 | 127 | 4.8 | 16.1 | 0.00 | 0.00 | 0.00 | 44 | 1008.8 |
| 20260505234911 | 23 | 165 | 4.8 | 16.1 | 0.00 | 0.00 | 0.00 | 43 | 1008.9 |
| 20260505234405 | 23 | 163 | 4.8 | 14.5 | 0.00 | 0.00 | 0.00 | 43 | 1009.0 |
| 20260505234131 | 23 | 158 | 4.8 | 14.5 | 0.00 | 0.00 | 0.00 | 42 | 1008.8 |
| 20260505233353 | 23 | 167 | 4.8 | 12.9 | 0.00 | 0.00 | 0.00 | 41 | 1008.7 |
| 20260505232847 | 23 | 136 | 4.8 | 14.5 | 0.00 | 0.00 | 0.00 | 42 | 1008.7 |
| 20260505232343 | 23 | 192 | 6.4 | 24.1 | 0.00 | 0.00 | 0.00 | 41 | 1008.6 |